Time;durP1;ratioP1;P1;durP2;ratioP2;P2;SDS_P1;SDS_P2;PMS_P1;PMS_P2;Temp;Humidity;BMP_temperature;BMP_pressure;BME280_temperature;BME280_humidity;BME280_pressure;Samples;Min_cycle;Max_cycle;Signal;HPM_P1;HPM_P2
2021/06/01 00:01:22;;;;;;;1.73;1.63;;;24.30;58.20;;;;;;5057069;28;20797;-88
2021/06/01 00:03:48;;;;;;;1.30;1.10;;;24.30;58.20;;;;;;5056809;28;20450;-88
2021/06/01 00:06:15;;;;;;;1.30;1.00;;;24.30;58.20;;;;;;5056662;28;20465;-88
2021/06/01 00:08:42;;;;;;;1.20;1.00;;;24.40;58.30;;;;;;5056870;28;20447;-88
2021/06/01 00:11:11;;;;;;;1.10;0.90;;;24.30;58.30;;;;;;5056716;28;20489;-88
2021/06/01 00:13:38;;;;;;;1.30;1.20;;;24.40;58.30;;;;;;5056542;28;20443;-88
2021/06/01 00:16:06;;;;;;;1.20;0.90;;;24.30;58.20;;;;;;5056489;28;20442;-88
2021/06/01 00:18:33;;;;;;;1.07;0.87;;;24.30;58.20;;;;;;5056465;28;20934;-88
2021/06/01 00:20:59;;;;;;;1.10;0.93;;;24.30;58.20;;;;;;5056700;28;20451;-88
2021/06/01 00:23:26;;;;;;;1.20;1.10;;;24.30;58.20;;;;;;5056510;28;20964;-88
2021/06/01 00:25:52;;;;;;;1.73;1.23;;;24.30;58.10;;;;;;5056301;28;20445;-88
2021/06/01 00:28:20;;;;;;;2.20;1.20;;;24.30;58.20;;;;;;5056483;28;20446;-88
2021/06/01 00:30:46;;;;;;;1.30;1.10;;;24.30;58.10;;;;;;5056250;28;20449;-88
2021/06/01 00:33:13;;;;;;;1.60;1.10;;;24.30;58.20;;;;;;5056460;28;20443;-88
2021/06/01 00:35:39;;;;;;;1.10;1.00;;;24.30;58.20;;;;;;5056338;28;20458;-88
2021/06/01 00:38:06;;;;;;;1.17;1.07;;;24.30;58.30;;;;;;5056534;28;20435;-88
2021/06/01 00:40:33;;;;;;;1.10;1.00;;;24.30;58.40;;;;;;5055444;28;20782;-88
2021/06/01 00:42:59;;;;;;;1.87;1.23;;;24.30;58.30;;;;;;5056366;28;20488;-88
2021/06/01 00:45:27;;;;;;;1.73;1.10;;;24.30;58.30;;;;;;5055971;28;20479;-88
2021/06/01 00:47:54;;;;;;;1.10;1.00;;;24.30;58.30;;;;;;5056075;28;20447;-88
2021/06/01 00:50:22;;;;;;;1.43;1.20;;;24.30;58.30;;;;;;5056089;28;20484;-88
2021/06/01 00:52:49;;;;;;;1.00;0.90;;;24.30;58.30;;;;;;5055851;28;20489;-88
2021/06/01 00:55:16;;;;;;;1.30;1.10;;;24.30;58.30;;;;;;5056027;28;20929;-88
2021/06/01 00:57:42;;;;;;;1.33;1.23;;;24.30;58.30;;;;;;5055730;28;20434;-88
2021/06/01 01:00:19;;;;;;;1.13;1.03;;;24.30;58.20;;;;;;5055950;28;20797;-88
2021/06/01 01:02:47;;;;;;;1.20;1.10;;;24.30;58.20;;;;;;5056058;28;20789;-88
2021/06/01 01:05:15;;;;;;;1.27;1.17;;;24.30;58.20;;;;;;5055601;28;20979;-88
2021/06/01 01:07:58;;;;;;;1.20;1.07;;;24.30;58.30;;;;;;5055780;28;20862;-88
2021/06/01 01:10:28;;;;;;;1.50;1.40;;;24.30;58.30;;;;;;5055836;28;20435;-88
2021/06/01 01:13:00;;;;;;;1.60;1.47;;;24.30;58.40;;;;;;5056429;28;20489;-88
2021/06/01 01:15:28;;;;;;;1.23;1.13;;;24.30;58.40;;;;;;5055452;28;20910;-88
2021/06/01 01:17:58;;;;;;;1.47;1.37;;;24.20;58.30;;;;;;5055746;28;20446;-88
2021/06/01 01:20:33;;;;;;;1.20;1.10;;;24.20;58.30;;;;;;5055632;28;20442;-87
2021/06/01 01:23:03;;;;;;;1.27;1.17;;;24.20;58.30;;;;;;5055255;28;20442;-88
2021/06/01 01:25:36;;;;;;;1.20;1.00;;;24.30;58.40;;;;;;5055318;28;20883;-88
2021/06/01 01:28:09;;;;;;;1.37;1.10;;;24.20;58.30;;;;;;5055374;28;20455;-88
2021/06/01 01:30:43;;;;;;;1.30;1.20;;;24.20;58.20;;;;;;5055633;28;20426;-88
2021/06/01 01:33:23;;;;;;;1.60;1.13;;;24.40;58.30;;;;;;5055096;28;20474;-88
2021/06/01 01:35:54;;;;;;;1.60;1.40;;;24.20;58.20;;;;;;5055867;28;20454;-87
2021/06/01 01:38:21;;;;;;;1.10;1.00;;;24.30;58.30;;;;;;5055125;28;20431;-88
2021/06/01 01:40:48;;;;;;;2.13;1.13;;;24.20;58.30;;;;;;5055070;28;20439;-88
2021/06/01 01:43:16;;;;;;;1.80;1.30;;;24.20;58.30;;;;;;5055214;28;20500;-88
2021/06/01 01:45:47;;;;;;;1.83;1.07;;;24.20;58.30;;;;;;5055039;28;20466;-88
2021/06/01 01:51:12;;;;;;;1.27;1.10;;;24.20;58.30;;;;;;5055090;28;20936;-88
2021/06/01 01:53:42;;;;;;;1.20;1.10;;;24.20;58.40;;;;;;5054876;28;20441;-88
2021/06/01 01:56:09;;;;;;;1.13;0.97;;;24.30;58.50;;;;;;5054516;28;20457;-88
2021/06/01 01:58:36;;;;;;;1.73;1.23;;;24.30;58.50;;;;;;5054627;28;20442;-88
2021/06/01 02:01:03;;;;;;;1.20;1.10;;;24.20;58.30;;;;;;5055119;28;20439;-88
2021/06/01 02:03:29;;;;;;;1.00;0.90;;;24.40;58.50;;;;;;5054748;28;20442;-88
2021/06/01 02:05:57;;;;;;;1.20;1.10;;;24.20;58.30;;;;;;5054646;28;21000;-88
2021/06/01 02:08:25;;;;;;;1.20;1.10;;;24.20;58.40;;;;;;5054529;28;20979;-88
2021/06/01 02:10:53;;;;;;;1.40;1.30;;;24.20;58.30;;;;;;5054787;28;20603;-88
2021/06/01 02:13:20;;;;;;;1.47;1.37;;;24.20;58.30;;;;;;5054417;28;20439;-88
2021/06/01 02:15:46;;;;;;;1.47;1.37;;;24.20;58.30;;;;;;5054725;28;20483;-88
2021/06/01 02:18:13;;;;;;;1.40;1.30;;;24.20;58.30;;;;;;5054562;28;20443;-87
2021/06/01 02:20:40;;;;;;;1.40;1.27;;;24.20;58.30;;;;;;5054154;28;20444;-88
2021/06/01 02:26:01;;;;;;;1.30;1.20;;;24.30;58.40;;;;;;5054807;28;20426;-88
2021/06/01 02:28:29;;;;;;;1.10;1.00;;;24.20;58.30;;;;;;5054487;28;20443;-88
2021/06/01 02:31:03;;;;;;;1.20;1.10;;;24.20;58.30;;;;;;5054270;28;20459;-88
2021/06/01 02:33:32;;;;;;;1.37;1.10;;;24.20;58.30;;;;;;5054041;28;21000;-88
2021/06/01 02:36:01;;;;;;;1.40;1.30;;;24.20;58.30;;;;;;5053956;28;20467;-88
2021/06/01 02:38:31;;;;;;;1.37;1.20;;;24.20;58.30;;;;;;5054072;28;20440;-88
2021/06/01 02:41:00;;;;;;;1.20;1.10;;;24.40;58.40;;;;;;5054261;28;20462;-88
2021/06/01 02:43:27;;;;;;;1.20;1.10;;;24.20;58.30;;;;;;5053941;28;20430;-88
2021/06/01 02:45:53;;;;;;;1.50;1.30;;;24.20;58.30;;;;;;5053820;28;20532;-88
2021/06/01 02:48:22;;;;;;;1.30;1.20;;;24.30;58.40;;;;;;5053757;28;20441;-88
2021/06/01 02:50:51;;;;;;;1.30;1.20;;;24.20;58.40;;;;;;5053971;28;20445;-88
2021/06/01 02:53:19;;;;;;;1.53;1.20;;;24.30;58.40;;;;;;5053787;28;20505;-88
2021/06/01 02:55:45;;;;;;;1.20;1.10;;;24.20;58.30;;;;;;5053568;28;20481;-88
2021/06/01 02:58:14;;;;;;;1.40;1.30;;;24.20;58.30;;;;;;5053572;28;20454;-88
2021/06/01 03:00:42;;;;;;;1.10;1.00;;;24.20;58.30;;;;;;5054153;28;20436;-88
2021/06/01 03:03:10;;;;;;;1.33;1.23;;;24.20;58.30;;;;;;5053602;28;20446;-88
2021/06/01 03:05:37;;;;;;;1.30;1.20;;;24.10;58.30;;;;;;5054159;28;20471;-88
2021/06/01 03:08:14;;;;;;;1.40;1.20;;;24.10;58.30;;;;;;5077252;28;20427;-89
2021/06/01 03:10:41;;;;;;;1.43;1.33;;;24.20;58.30;;;;;;5078662;28;20491;-88
2021/06/01 03:13:07;;;;;;;1.40;1.20;;;24.10;58.30;;;;;;5078364;28;20493;-88
2021/06/01 03:15:35;;;;;;;1.50;1.10;;;24.10;58.30;;;;;;5058431;28;20437;-88
2021/06/01 03:18:01;;;;;;;1.50;1.27;;;24.20;58.30;;;;;;5053632;28;20438;-88
2021/06/01 03:20:28;;;;;;;1.27;1.17;;;24.20;58.30;;;;;;5053667;28;20508;-88
2021/06/01 03:22:54;;;;;;;1.57;1.27;;;24.20;58.30;;;;;;5053633;28;20430;-88
2021/06/01 03:25:20;;;;;;;1.50;1.40;;;24.30;58.30;;;;;;5054154;28;20455;-88
2021/06/01 03:27:47;;;;;;;1.60;1.20;;;24.10;58.20;;;;;;5053655;28;20486;-88
2021/06/01 03:30:15;;;;;;;1.63;1.53;;;24.30;58.40;;;;;;5053513;28;20446;-88
2021/06/01 03:32:43;;;;;;;1.20;1.10;;;24.10;58.20;;;;;;5053615;28;20477;-88
2021/06/01 03:35:10;;;;;;;1.20;1.10;;;24.10;58.20;;;;;;5053515;28;20467;-87
2021/06/01 03:37:36;;;;;;;1.50;1.40;;;24.10;58.20;;;;;;5053201;28;20454;-88
2021/06/01 03:40:05;;;;;;;1.27;1.17;;;24.00;58.10;;;;;;5054041;28;20807;-88
2021/06/01 03:42:31;;;;;;;1.40;1.20;;;24.10;58.20;;;;;;5053306;28;20508;-88
2021/06/01 03:44:57;;;;;;;1.33;1.10;;;24.10;58.20;;;;;;5053113;28;20480;-88
2021/06/01 03:47:24;;;;;;;1.37;1.27;;;24.10;58.20;;;;;;5053379;28;20446;-88
2021/06/01 03:49:52;;;;;;;1.10;1.00;;;24.10;58.20;;;;;;5053228;28;20451;-88
2021/06/01 03:52:18;;;;;;;1.20;1.10;;;24.10;58.10;;;;;;5053501;28;20482;-88
2021/06/01 03:54:45;;;;;;;1.70;1.60;;;24.10;58.20;;;;;;5053168;28;20446;-88
2021/06/01 03:57:12;;;;;;;1.17;1.03;;;24.20;58.30;;;;;;5053243;28;20454;-88
2021/06/01 03:59:38;;;;;;;1.50;1.37;;;24.10;58.20;;;;;;5053503;28;20454;-88
2021/06/01 04:02:05;;;;;;;1.20;1.10;;;24.10;58.20;;;;;;5053214;28;20443;-88
2021/06/01 04:04:31;;;;;;;1.30;1.20;;;24.10;58.10;;;;;;5053198;28;20446;-88
2021/06/01 04:06:59;;;;;;;1.50;1.20;;;24.10;58.10;;;;;;5053209;28;20451;-88
2021/06/01 04:09:25;;;;;;;1.20;1.10;;;24.10;58.10;;;;;;5053195;28;20500;-88
2021/06/01 04:11:51;;;;;;;1.20;1.10;;;24.20;58.30;;;;;;5053079;28;20472;-88
2021/06/01 04:14:19;;;;;;;1.10;1.00;;;24.20;58.20;;;;;;5053060;28;20459;-88
2021/06/01 04:16:45;;;;;;;3.93;1.20;;;24.10;58.10;;;;;;5055573;28;20493;-88
2021/06/01 04:19:12;;;;;;;2.60;1.40;;;24.10;58.10;;;;;;5056530;28;20840;-88
2021/06/01 04:21:39;;;;;;;1.30;1.20;;;24.00;58.10;;;;;;5056909;28;20433;-89
2021/06/01 04:24:08;;;;;;;1.20;1.10;;;24.10;58.20;;;;;;5056912;28;20837;-89
2021/06/01 04:26:35;;;;;;;1.57;1.43;;;24.10;58.20;;;;;;5056734;28;20439;-88
2021/06/01 04:29:01;;;;;;;1.30;1.20;;;24.10;58.20;;;;;;5056770;28;20437;-85
2021/06/01 04:31:27;;;;;;;2.50;2.07;;;24.10;58.30;;;;;;5058743;28;20493;-84
2021/06/01 04:33:53;;;;;;;3.60;2.37;;;24.10;56.70;;;;;;5056503;28;20503;-84
2021/06/01 04:36:20;;;;;;;2.80;2.60;;;24.00;55.60;;;;;;5056067;28;20466;-85
2021/06/01 04:38:46;;;;;;;2.50;2.30;;;23.90;55.50;;;;;;5056839;28;20463;-88
2021/06/01 04:41:13;;;;;;;3.10;2.77;;;23.80;55.40;;;;;;5056480;28;20442;-86
2021/06/01 04:43:40;;;;;;;3.40;2.60;;;23.70;55.20;;;;;;5056818;28;20442;-86
2021/06/01 04:46:06;;;;;;;2.60;2.40;;;23.60;54.90;;;;;;5056138;28;20972;-87
2021/06/01 04:48:32;;;;;;;9.50;2.80;;;23.60;55.00;;;;;;5056344;28;20438;-86
2021/06/01 04:50:59;;;;;;;5.70;3.00;;;23.50;55.10;;;;;;5056527;28;20446;-88
2021/06/01 04:53:25;;;;;;;3.40;3.10;;;23.40;55.20;;;;;;5056245;28;20486;-83
2021/06/01 04:55:51;;;;;;;2.70;2.50;;;23.40;55.40;;;;;;5055942;28;20442;-83
2021/06/01 04:58:19;;;;;;;4.43;2.77;;;23.50;55.40;;;;;;5055956;28;20971;-82
2021/06/01 05:00:45;;;;;;;2.67;2.43;;;23.30;55.20;;;;;;5056079;28;20503;-83
2021/06/01 05:03:13;;;;;;;3.67;3.10;;;23.20;55.30;;;;;;5056057;28;20438;-83
2021/06/01 05:05:39;;;;;;;3.20;2.90;;;23.10;55.40;;;;;;5055982;28;20470;-82
2021/06/01 05:08:05;;;;;;;3.80;2.93;;;23.00;55.40;;;;;;5055890;28;20442;-83
2021/06/01 05:10:32;;;;;;;4.43;3.20;;;23.00;55.60;;;;;;5055700;28;20438;-83
2021/06/01 05:12:58;;;;;;;5.67;2.77;;;22.80;55.60;;;;;;5055787;28;20484;-82
2021/06/01 05:15:25;;;;;;;3.77;2.83;;;22.80;55.80;;;;;;5055812;28;20442;-83
2021/06/01 05:17:52;;;;;;;3.10;2.57;;;22.80;56.00;;;;;;5055528;28;20449;-84
2021/06/01 05:20:18;;;;;;;3.60;3.00;;;22.70;56.00;;;;;;5055654;28;20445;-83
2021/06/01 05:22:44;;;;;;;4.20;2.73;;;22.70;56.20;;;;;;5055737;28;20441;-83
2021/06/01 05:25:11;;;;;;;3.20;2.90;;;22.60;56.10;;;;;;5055599;28;20468;-83
2021/06/01 05:27:37;;;;;;;6.17;3.10;;;22.60;56.20;;;;;;5055131;28;20446;-83
2021/06/01 05:30:05;;;;;;;3.33;3.03;;;22.60;56.40;;;;;;5055267;28;20499;-82
2021/06/01 05:33:08;;;;;;;2.83;2.50;;;22.60;56.20;;;;;;5055375;28;20866;-83
2021/06/01 05:35:38;;;;;;;3.27;2.43;;;22.60;56.40;;;;;;5055044;28;20527;-83
2021/06/01 05:38:05;;;;;;;2.97;2.47;;;22.60;56.60;;;;;;5055622;28;20426;-84
2021/06/01 05:40:31;;;;;;;2.03;1.90;;;22.70;56.80;;;;;;5037710;28;20453;-84
2021/06/01 05:42:57;;;;;;;4.47;2.33;;;22.80;56.90;;;;;;5055310;28;20453;-84
2021/06/01 05:45:24;;;;;;;2.80;1.97;;;22.80;57.20;;;;;;5055142;28;20512;-84
2021/06/01 05:47:51;;;;;;;2.83;2.33;;;22.80;57.40;;;;;;5055012;28;20484;-84
2021/06/01 05:50:18;;;;;;;2.43;2.00;;;22.90;57.60;;;;;;5054881;28;20442;-87
2021/06/01 05:52:44;;;;;;;3.20;1.77;;;23.00;57.80;;;;;;5054880;28;20484;-84
2021/06/01 05:55:11;;;;;;;2.17;1.93;;;23.00;57.70;;;;;;5054695;28;20460;-84
2021/06/01 05:57:38;;;;;;;2.50;2.30;;;23.10;57.80;;;;;;5054441;28;20448;-84
2021/06/01 06:00:06;;;;;;;1.90;1.73;;;23.10;58.00;;;;;;5054795;28;20438;-84
2021/06/01 06:02:33;;;;;;;2.17;1.97;;;23.20;58.10;;;;;;5054553;28;20553;-84
2021/06/01 06:05:00;;;;;;;2.10;2.00;;;23.20;58.10;;;;;;5054341;28;20465;-84
2021/06/01 06:07:26;;;;;;;3.37;1.97;;;23.30;58.10;;;;;;5054639;28;20560;-84
2021/06/01 06:09:53;;;;;;;3.83;2.00;;;23.50;58.20;;;;;;5054479;28;20445;-84
2021/06/01 06:12:19;;;;;;;2.37;2.17;;;23.50;58.20;;;;;;5054315;28;20494;-84
2021/06/01 06:14:46;;;;;;;2.30;2.10;;;23.40;58.10;;;;;;5054725;28;20924;-84
2021/06/01 06:17:28;;;;;;;1.67;1.57;;;23.40;58.10;;;;;;5056321;28;20434;-85
2021/06/01 06:19:54;;;;;;;1.70;1.60;;;23.50;58.10;;;;;;5056846;28;20446;-84
2021/06/01 06:22:22;;;;;;;1.93;1.73;;;23.60;58.20;;;;;;5055902;28;20438;-84
2021/06/01 06:24:50;;;;;;;4.20;2.40;;;23.50;58.10;;;;;;5054284;28;20494;-84
2021/06/01 06:27:16;;;;;;;2.27;1.70;;;23.50;58.00;;;;;;5054217;28;20504;-84
2021/06/01 06:29:43;;;;;;;2.00;1.80;;;23.60;58.10;;;;;;5054171;28;20444;-84
2021/06/01 06:32:09;;;;;;;4.33;2.20;;;23.60;58.10;;;;;;5053817;28;20589;-85
2021/06/01 06:34:36;;;;;;;1.87;1.77;;;23.60;58.20;;;;;;5057930;28;20522;-84
2021/06/01 06:37:04;;;;;;;2.60;1.73;;;23.60;58.10;;;;;;5071505;28;20443;-87
2021/06/01 06:39:32;;;;;;;2.00;1.80;;;23.60;58.10;;;;;;5069198;28;20449;-85
2021/06/01 06:41:58;;;;;;;1.77;1.67;;;23.70;58.20;;;;;;5055775;28;20441;-85
2021/06/01 06:44:25;;;;;;;1.70;1.60;;;23.60;58.20;;;;;;5053641;28;20443;-84
2021/06/01 06:47:03;;;;;;;2.33;1.60;;;23.70;58.30;;;;;;5053351;28;20924;-83
2021/06/01 06:49:31;;;;;;;4.07;1.90;;;23.70;58.30;;;;;;5053706;28;20457;-88
2021/06/01 06:51:58;;;;;;;1.90;1.70;;;23.70;58.40;;;;;;5053274;28;20497;-88
2021/06/01 06:54:24;;;;;;;1.93;1.83;;;23.70;58.40;;;;;;5053795;28;20841;-88
2021/06/01 06:56:52;;;;;;;1.97;1.87;;;23.70;58.40;;;;;;5035635;28;20922;-89
2021/06/01 06:59:19;;;;;;;2.10;1.90;;;23.80;58.50;;;;;;5053752;28;20940;-87
2021/06/01 07:01:45;;;;;;;1.60;1.23;;;23.70;58.40;;;;;;5053467;28;20435;-89
2021/06/01 07:04:11;;;;;;;2.80;1.87;;;23.70;58.40;;;;;;5035594;28;20445;-85
2021/06/01 07:06:38;;;;;;;3.33;2.00;;;23.70;58.50;;;;;;5053175;28;20445;-85
2021/06/01 07:09:05;;;;;;;2.03;1.83;;;23.70;58.50;;;;;;5053438;28;20493;-86
2021/06/01 07:11:32;;;;;;;2.07;1.83;;;23.70;58.50;;;;;;5053303;28;20447;-89
2021/06/01 07:14:10;;;;;;;2.17;1.97;;;23.90;58.70;;;;;;5053073;28;21034;-88
2021/06/01 07:16:37;;;;;;;2.17;1.97;;;23.70;58.60;;;;;;5052673;28;20484;-86
2021/06/01 07:19:04;;;;;;;1.93;1.77;;;23.80;58.70;;;;;;5070968;28;20445;-86
2021/06/01 07:21:31;;;;;;;1.73;1.63;;;23.80;58.70;;;;;;5072457;28;20498;-88
2021/06/01 07:23:57;;;;;;;2.17;1.40;;;23.70;58.60;;;;;;5058950;28;20466;-85
2021/06/01 07:26:24;;;;;;;1.50;1.40;;;23.90;59.40;;;;;;5070526;28;20500;-88
2021/06/01 07:28:51;;;;;;;2.73;1.93;;;23.80;58.80;;;;;;5072350;28;20445;-88
2021/06/01 07:31:19;;;;;;;1.93;1.50;;;23.70;58.80;;;;;;5072515;28;20453;-89
2021/06/01 07:33:46;;;;;;;2.47;1.90;;;23.80;58.80;;;;;;5072527;28;20495;-88
2021/06/01 07:36:13;;;;;;;1.57;1.47;;;23.80;58.90;;;;;;5069138;28;20482;-89
2021/06/01 07:38:39;;;;;;;1.73;1.50;;;23.90;58.90;;;;;;5064104;28;20450;-88
2021/06/01 07:41:06;;;;;;;2.57;1.60;;;23.80;58.80;;;;;;5052463;28;21011;-89
2021/06/01 07:43:32;;;;;;;1.80;1.30;;;23.80;58.90;;;;;;5055390;28;20466;-88
2021/06/01 07:46:02;;;;;;;3.67;2.00;;;23.80;58.90;;;;;;5064258;28;20469;-88
2021/06/01 07:48:32;;;;;;;1.53;1.43;;;23.80;58.90;;;;;;5072480;28;20455;-88
2021/06/01 07:50:59;;;;;;;2.13;1.73;;;23.80;58.90;;;;;;5076088;28;20445;-85
2021/06/01 07:53:25;;;;;;;1.67;1.57;;;23.80;58.90;;;;;;5073328;28;20481;-88
2021/06/01 07:55:52;;;;;;;1.30;1.20;;;23.80;58.90;;;;;;5086726;28;20493;-87
2021/06/01 07:58:19;;;;;;;1.83;1.73;;;23.80;58.90;;;;;;5080284;28;20433;-89
2021/06/01 08:00:45;;;;;;;2.00;1.53;;;23.80;59.00;;;;;;5078049;28;20992;-83
2021/06/01 08:03:15;;;;;;;2.00;1.90;;;23.80;59.00;;;;;;5058819;28;20446;-85
2021/06/01 08:05:43;;;;;;;1.60;1.50;;;23.80;59.00;;;;;;5056383;28;20465;-89
2021/06/01 08:08:09;;;;;;;4.93;1.63;;;23.80;59.00;;;;;;5056126;28;20528;-86
2021/06/01 08:10:35;;;;;;;1.70;1.60;;;23.80;59.00;;;;;;5059311;28;20461;-86
2021/06/01 08:13:02;;;;;;;1.73;1.50;;;23.80;59.10;;;;;;5075170;28;20489;-86
2021/06/01 08:15:28;;;;;;;1.63;1.47;;;23.80;59.10;;;;;;5072856;28;20531;-86
2021/06/01 08:17:58;;;;;;;1.70;1.60;;;23.80;59.10;;;;;;5075248;28;20455;-88
2021/06/01 08:20:35;;;;;;;2.90;1.57;;;23.80;59.10;;;;;;5075609;28;20851;-86
2021/06/01 08:23:03;;;;;;;2.10;1.90;;;23.80;59.10;;;;;;5067619;28;20606;-89
2021/06/01 08:25:29;;;;;;;3.03;1.77;;;24.00;59.20;;;;;;5071483;28;20460;-84
2021/06/01 08:27:57;;;;;;;1.50;1.23;;;23.80;59.10;;;;;;5055324;28;20445;-86
2021/06/01 08:30:24;;;;;;;2.00;1.80;;;23.80;59.10;;;;;;5070896;28;20440;-87
2021/06/01 08:32:50;;;;;;;1.90;1.70;;;24.10;59.30;;;;;;5060329;28;20566;-85
2021/06/01 08:35:17;;;;;;;2.30;1.60;;;23.90;59.10;;;;;;5054905;28;20989;-86
2021/06/01 08:37:43;;;;;;;1.80;1.40;;;23.90;59.20;;;;;;5055063;28;20472;-88
2021/06/01 08:40:12;;;;;;;3.33;1.73;;;23.90;59.20;;;;;;5054934;28;20442;-87
2021/06/01 08:42:39;;;;;;;1.60;1.50;;;23.90;59.20;;;;;;5055950;28;20458;-85
2021/06/01 08:45:08;;;;;;;2.60;1.40;;;23.90;59.20;;;;;;5055058;28;20482;-84
2021/06/01 08:47:34;;;;;;;1.77;1.63;;;23.90;59.20;;;;;;5054926;28;20994;-85
2021/06/01 08:50:06;;;;;;;1.63;1.53;;;24.00;59.20;;;;;;5054912;28;20442;-88
2021/06/01 08:52:33;;;;;;;1.70;1.60;;;23.90;59.10;;;;;;5055006;28;20485;-86
2021/06/01 08:54:59;;;;;;;1.73;1.60;;;23.90;58.90;;;;;;5055038;28;20474;-86
2021/06/01 08:57:27;;;;;;;4.50;2.07;;;23.90;58.80;;;;;;5054916;28;20503;-87
2021/06/01 08:59:54;;;;;;;1.70;1.60;;;23.90;58.80;;;;;;5055178;28;20445;-88
2021/06/01 09:02:21;;;;;;;12.23;2.37;;;23.90;58.80;;;;;;5054088;28;20443;-87
2021/06/01 09:04:51;;;;;;;2.80;1.80;;;23.90;58.80;;;;;;5054604;28;20465;-87
2021/06/01 09:07:26;;;;;;;2.93;1.50;;;23.90;58.80;;;;;;5054757;28;20503;-87
2021/06/01 09:10:27;;;;;;;2.67;1.80;;;23.90;58.80;;;;;;5054737;28;20457;-87
2021/06/01 09:13:24;;;;;;;4.03;1.73;;;23.90;58.70;;;;;;5054560;28;20533;-87
2021/06/01 09:21:38;;;;;;;1.50;1.40;;;23.90;58.80;;;;;;5054613;28;20457;-87
2021/06/01 09:24:05;;;;;;;3.40;2.07;;;23.90;58.80;;;;;;5054582;28;20979;-87
2021/06/01 09:26:46;;;;;;;4.13;1.60;;;24.00;58.90;;;;;;5054361;28;20447;-87
2021/06/01 09:29:14;;;;;;;1.90;1.50;;;24.00;58.90;;;;;;5054381;28;20441;-86
2021/06/01 09:31:41;;;;;;;1.70;1.60;;;24.00;58.90;;;;;;5054215;28;20449;-86
2021/06/01 09:34:08;;;;;;;1.90;1.73;;;23.90;58.80;;;;;;5054107;28;20464;-87
2021/06/01 09:36:35;;;;;;;1.60;1.50;;;24.00;58.90;;;;;;5054103;28;20457;-87
2021/06/01 09:39:07;;;;;;;2.00;1.53;;;24.00;59.40;;;;;;5054302;28;20442;-86
2021/06/01 09:41:33;;;;;;;2.80;1.37;;;24.00;58.90;;;;;;5054109;28;20454;-87
2021/06/01 09:44:01;;;;;;;2.53;1.63;;;24.00;58.90;;;;;;5054264;28;20469;-87
2021/06/01 09:46:30;;;;;;;6.73;1.67;;;24.00;58.90;;;;;;5054024;28;20492;-86
2021/06/01 09:49:22;;;;;;;5.23;1.73;;;24.00;58.90;;;;;;5054174;28;20837;-87
2021/06/01 09:51:53;;;;;;;1.50;1.40;;;24.00;58.80;;;;;;5053831;28;20452;-86
2021/06/01 09:54:30;;;;;;;1.50;1.40;;;24.00;58.90;;;;;;5054025;28;20447;-86
2021/06/01 09:56:57;;;;;;;1.90;1.40;;;24.00;58.80;;;;;;5053883;28;20441;-87
2021/06/01 09:59:23;;;;;;;1.60;1.50;;;24.00;58.90;;;;;;5053707;28;20466;-87
2021/06/01 10:01:51;;;;;;;2.43;1.70;;;24.00;58.80;;;;;;5053705;28;20489;-87
2021/06/01 10:04:25;;;;;;;1.87;1.67;;;24.00;58.90;;;;;;5053502;28;20475;-87
2021/06/01 10:06:51;;;;;;;1.50;1.40;;;24.00;58.90;;;;;;5053422;28;20434;-86
2021/06/01 10:09:18;;;;;;;1.50;1.40;;;24.00;58.90;;;;;;5053641;28;20938;-87
2021/06/01 10:11:55;;;;;;;2.60;1.93;;;24.10;59.00;;;;;;5053643;28;20444;-87
2021/06/01 10:14:22;;;;;;;3.73;1.40;;;24.00;58.90;;;;;;5052520;28;20446;-87
2021/06/01 10:16:50;;;;;;;2.03;1.50;;;24.00;58.90;;;;;;5053319;28;20453;-87
2021/06/01 10:19:16;;;;;;;1.33;1.23;;;24.20;59.10;;;;;;5053647;28;20450;-87
2021/06/01 10:21:44;;;;;;;1.50;1.40;;;24.10;59.00;;;;;;5053614;28;20449;-87
2021/06/01 10:24:13;;;;;;;1.40;1.20;;;24.10;59.00;;;;;;5053290;28;20964;-87
2021/06/01 10:26:41;;;;;;;1.70;1.40;;;24.10;59.00;;;;;;5053178;28;20802;-86
2021/06/01 10:29:08;;;;;;;1.70;1.60;;;24.10;59.00;;;;;;5053068;28;20534;-86
2021/06/01 10:31:35;;;;;;;1.37;1.27;;;24.10;59.00;;;;;;5053161;28;20495;-87
2021/06/01 10:34:09;;;;;;;1.77;1.43;;;24.10;59.00;;;;;;5053120;28;20494;-87
2021/06/01 10:42:39;;;;;;;1.80;1.30;;;24.10;59.00;;;;;;5053190;28;20496;-86
2021/06/01 10:51:04;;;;;;;3.53;1.73;;;24.10;59.10;;;;;;5048895;28;20461;-85
2021/06/01 10:53:41;;;;;;;3.37;1.93;;;24.10;59.10;;;;;;5035317;28;20594;-87
2021/06/01 10:56:07;;;;;;;1.57;1.47;;;24.10;59.10;;;;;;5052781;28;20778;-87
2021/06/01 10:58:56;;;;;;;3.20;1.60;;;24.10;59.10;;;;;;5052669;28;20503;-84
2021/06/01 11:04:09;;;;;;;4.13;1.60;;;24.30;59.20;;;;;;5052714;28;20465;-84
2021/06/01 11:07:10;;;;;;;2.53;1.40;;;24.20;59.00;;;;;;5052526;28;20442;-84
2021/06/01 11:09:48;;;;;;;2.10;1.40;;;24.20;59.50;;;;;;5052627;28;20467;-84
2021/06/01 11:12:46;;;;;;;3.33;1.63;;;24.20;59.00;;;;;;5052600;28;20835;-84
2021/06/01 11:15:31;;;;;;;2.00;1.80;;;24.20;59.00;;;;;;5052466;28;20439;-84
2021/06/01 11:18:14;;;;;;;2.83;1.37;;;24.20;59.10;;;;;;5052400;28;20445;-88
2021/06/01 11:21:01;;;;;;;1.63;1.50;;;24.20;59.10;;;;;;5052688;28;20541;-87
2021/06/01 11:23:37;;;;;;;3.63;1.70;;;24.10;59.00;;;;;;5052650;28;20482;-86
2021/06/01 11:32:50;;;;;;;1.80;1.37;;;24.10;59.00;;;;;;5052531;28;20784;-87
2021/06/01 11:34:37;;;;;;;1.63;1.37;;;24.20;59.10;;;;;;5052359;28;20570;-86
2021/06/01 11:37:13;;;;;;;2.43;1.50;;;24.10;59.00;;;;;;5052319;28;20523;-87
2021/06/01 11:39:53;;;;;;;4.33;1.40;;;24.20;59.10;;;;;;5052555;28;20447;-87
2021/06/01 11:45:05;;;;;;;1.93;1.40;;;24.10;59.00;;;;;;5052290;28;20464;-89
2021/06/01 11:47:42;;;;;;;1.97;1.40;;;24.20;59.10;;;;;;5052272;28;20875;-87
2021/06/01 11:53:02;;;;;;;6.07;1.90;;;24.20;59.10;;;;;;5041484;28;20485;-87
2021/06/01 11:55:30;;;;;;;2.40;1.23;;;24.20;59.20;;;;;;5052100;28;20946;-88
2021/06/01 12:03:54;;;;;;;2.17;1.37;;;24.20;59.10;;;;;;5052263;28;20993;-88
2021/06/01 12:12:02;;;;;;;7.63;1.60;;;24.20;59.20;;;;;;5052038;28;20486;-89
2021/06/01 12:17:09;;;;;;;2.40;1.30;;;24.20;59.20;;;;;;5052050;28;20918;-87
2021/06/01 12:17:20;;;;;;;1.70;1.60;;;24.20;59.20;;;;;;5051758;28;20466;-89
2021/06/01 12:19:46;;;;;;;2.03;1.30;;;24.20;59.20;;;;;;5052002;28;20593;-87
2021/06/01 12:22:12;;;;;;;2.27;1.37;;;24.20;59.30;;;;;;5051871;28;20461;-87
2021/06/01 12:24:41;;;;;;;1.37;1.27;;;24.20;59.40;;;;;;5051806;28;20451;-87
2021/06/01 12:27:18;;;;;;;2.07;1.43;;;24.20;59.20;;;;;;5051867;28;20529;-87
2021/06/01 12:32:30;;;;;;;3.00;1.47;;;24.20;59.20;;;;;;5051926;28;20492;-87
2021/06/01 12:35:06;;;;;;;1.53;1.30;;;24.20;59.20;;;;;;5051686;28;20536;-87
2021/06/01 12:43:22;;;;;;;1.40;1.30;;;24.30;59.30;;;;;;5055454;28;20835;-89
2021/06/01 12:45:57;;;;;;;1.43;1.33;;;24.30;59.30;;;;;;5055190;28;20552;-87
2021/06/01 13:09:14;;;;;;;1.77;1.50;;;24.30;59.40;;;;;;5054942;28;20497;-89
2021/06/01 13:14:39;;;;;;;2.60;1.47;;;24.30;59.40;;;;;;5014630;28;20478;-86
2021/06/01 13:20:04;;;;;;;1.63;1.50;;;24.30;59.30;;;;;;5054624;28;20420;-86
2021/06/01 13:22:45;;;;;;;2.40;1.40;;;24.30;59.30;;;;;;5054663;28;20453;-86
2021/06/01 13:31:22;;;;;;;2.40;1.30;;;24.30;59.20;;;;;;5054422;28;20438;-85
2021/06/01 13:36:47;;;;;;;5.27;1.47;;;24.40;59.40;;;;;;5054068;28;20473;-87
2021/06/01 13:39:27;;;;;;;1.30;1.20;;;24.40;59.40;;;;;;5054231;28;20450;-87
2021/06/01 13:47:25;;;;;;;2.77;1.40;;;24.30;59.50;;;;;;5053977;28;20438;-89
2021/06/01 13:49:56;;;;;;;2.20;1.60;;;24.30;59.60;;;;;;5054168;28;20520;-88
2021/06/01 13:52:49;;;;;;;2.30;1.13;;;24.40;59.60;;;;;;5053860;28;20455;-89
2021/06/01 13:55:21;;;;;;;2.17;1.43;;;24.30;59.50;;;;;;5053980;28;20445;-90
2021/06/01 13:58:01;;;;;;;1.97;1.30;;;24.40;59.70;;;;;;5053855;28;20458;-89
2021/06/01 14:00:37;;;;;;;1.83;1.50;;;24.40;59.70;;;;;;5054262;28;20455;-89
2021/06/01 14:30:59;;;;;;;1.40;1.30;;;24.40;59.70;;;;;;5053431;28;20430;-90
2021/06/01 14:36:22;;;;;;;2.43;1.30;;;24.40;59.70;;;;;;5053204;28;20790;-89
2021/06/01 15:24:22;;;;;;;1.63;1.20;;;24.50;59.90;;;;;;5052629;28;20476;-88
2021/06/01 15:29:13;;;;;;;1.40;1.30;;;24.50;59.90;;;;;;5052733;28;20514;-90
2021/06/01 15:31:52;;;;;;;1.80;1.40;;;24.50;60.00;;;;;;5052478;28;20463;-89
2021/06/01 15:48:26;;;;;;;1.30;1.20;;;24.50;59.90;;;;;;5052274;28;20489;-89
2021/06/01 15:51:04;;;;;;;1.53;1.43;;;24.50;59.90;;;;;;5052252;28;20452;-89
2021/06/01 15:53:42;;;;;;;1.40;1.20;;;24.50;59.90;;;;;;5052199;28;20486;-89
2021/06/01 16:21:37;;;;;;;1.33;1.10;;;24.50;59.90;;;;;;5055777;28;20548;-90
2021/06/01 16:29:46;;;;;;;3.40;1.40;;;24.50;59.90;;;;;;5055832;28;20954;-88
2021/06/01 16:32:22;;;;;;;1.50;1.20;;;24.50;59.90;;;;;;5055507;28;20512;-89
2021/06/01 16:43:32;;;;;;;3.27;1.33;;;24.40;59.80;;;;;;5055493;28;20431;-89
2021/06/01 17:05:18;;;;;;;3.10;1.70;;;24.50;59.10;;;;;;5055101;28;20492;-88
2021/06/01 17:08:03;;;;;;;2.60;1.40;;;24.50;59.30;;;;;;5054821;28;20444;-89
2021/06/01 17:13:17;;;;;;;3.53;1.30;;;24.50;59.00;;;;;;5054896;28;20632;-88